sensor_id;sensor_type;location;lat;lon;timestamp;P1;durP1;ratioP1;P2;durP2;ratioP2
22046;SDS011;11187;49.412;20.956;2023-04-03T00:01:19;17.33;;;16.33;;
22046;SDS011;11187;49.412;20.956;2023-04-03T00:03:53;17.88;;;16.77;;
22046;SDS011;11187;49.412;20.956;2023-04-03T00:06:40;18.33;;;17.17;;
22046;SDS011;11187;49.412;20.956;2023-04-03T00:09:14;16.52;;;15.43;;
22046;SDS011;11187;49.412;20.956;2023-04-03T00:12:00;18.77;;;17.58;;
22046;SDS011;11187;49.412;20.956;2023-04-03T00:14:34;18.77;;;17.65;;
22046;SDS011;11187;49.412;20.956;2023-04-03T00:17:20;17.63;;;16.52;;
22046;SDS011;11187;49.412;20.956;2023-04-03T00:19:54;17.17;;;16.17;;
22046;SDS011;11187;49.412;20.956;2023-04-03T00:22:47;17.17;;;16.17;;
22046;SDS011;11187;49.412;20.956;2023-04-03T00:25:21;17.17;;;16.08;;
22046;SDS011;11187;49.412;20.956;2023-04-03T00:28:15;19.52;;;18.23;;
22046;SDS011;11187;49.412;20.956;2023-04-03T00:31:09;16.63;;;15.57;;
22046;SDS011;11187;49.412;20.956;2023-04-03T00:33:43;17.58;;;16.48;;
22046;SDS011;11187;49.412;20.956;2023-04-03T00:36:36;18.55;;;17.35;;
22046;SDS011;11187;49.412;20.956;2023-04-03T00:39:30;17.70;;;16.60;;
22046;SDS011;11187;49.412;20.956;2023-04-03T00:42:24;15.48;;;14.48;;
22046;SDS011;11187;49.412;20.956;2023-04-03T00:47:44;17.58;;;16.48;;
22046;SDS011;11187;49.412;20.956;2023-04-03T00:50:19;16.02;;;15.00;;
22046;SDS011;11187;49.412;20.956;2023-04-03T00:53:06;15.25;;;14.32;;
22046;SDS011;11187;49.412;20.956;2023-04-03T00:55:43;16.27;;;15.27;;
22046;SDS011;11187;49.412;20.956;2023-04-03T00:58:33;17.33;;;16.15;;
22046;SDS011;11187;49.412;20.956;2023-04-03T01:01:11;17.95;;;16.75;;
22046;SDS011;11187;49.412;20.956;2023-04-03T01:04:01;16.08;;;14.98;;
22046;SDS011;11187;49.412;20.956;2023-04-03T01:06:36;16.55;;;15.55;;
22046;SDS011;11187;49.412;20.956;2023-04-03T01:09:23;17.38;;;16.08;;
22046;SDS011;11187;49.412;20.956;2023-04-03T01:12:16;17.05;;;16.02;;
22046;SDS011;11187;49.412;20.956;2023-04-03T01:15:05;18.10;;;16.80;;
22046;SDS011;11187;49.412;20.956;2023-04-03T01:17:42;16.27;;;15.18;;
22046;SDS011;11187;49.412;20.956;2023-04-03T01:26:53;16.02;;;15.00;;
22046;SDS011;11187;49.412;20.956;2023-04-03T01:29:46;18.95;;;17.85;;
22046;SDS011;11187;49.412;20.956;2023-04-03T01:32:40;19.38;;;18.17;;
22046;SDS011;11187;49.412;20.956;2023-04-03T01:35:34;19.33;;;18.13;;
22046;SDS011;11187;49.412;20.956;2023-04-03T01:38:28;16.83;;;15.82;;
22046;SDS011;11187;49.412;20.956;2023-04-03T01:41:22;15.20;;;14.30;;
22046;SDS011;11187;49.412;20.956;2023-04-03T01:43:56;16.95;;;15.95;;
22046;SDS011;11187;49.412;20.956;2023-04-03T01:46:50;14.75;;;13.85;;
22046;SDS011;11187;49.412;20.956;2023-04-03T01:49:24;14.55;;;13.55;;
22046;SDS011;11187;49.412;20.956;2023-04-03T01:52:17;16.10;;;15.13;;
22046;SDS011;11187;49.412;20.956;2023-04-03T01:55:11;14.40;;;13.60;;
22046;SDS011;11187;49.412;20.956;2023-04-03T01:57:48;15.15;;;14.15;;
22046;SDS011;11187;49.412;20.956;2023-04-03T02:00:34;16.58;;;15.57;;
22046;SDS011;11187;49.412;20.956;2023-04-03T02:03:11;14.45;;;13.55;;
22046;SDS011;11187;49.412;20.956;2023-04-03T02:06:05;14.38;;;13.57;;
22046;SDS011;11187;49.412;20.956;2023-04-03T02:08:39;14.10;;;13.20;;
22046;SDS011;11187;49.412;20.956;2023-04-03T02:11:32;11.55;;;10.85;;
22046;SDS011;11187;49.412;20.956;2023-04-03T02:14:26;14.02;;;13.23;;
22046;SDS011;11187;49.412;20.956;2023-04-03T02:17:20;12.77;;;11.98;;
22046;SDS011;11187;49.412;20.956;2023-04-03T02:20:14;15.13;;;14.27;;
22046;SDS011;11187;49.412;20.956;2023-04-03T02:22:48;13.88;;;12.95;;
22046;SDS011;11187;49.412;20.956;2023-04-03T02:25:35;13.57;;;12.77;;
22046;SDS011;11187;49.412;20.956;2023-04-03T02:28:09;14.65;;;13.85;;
22046;SDS011;11187;49.412;20.956;2023-04-03T02:30:55;13.65;;;12.85;;
22046;SDS011;11187;49.412;20.956;2023-04-03T02:33:29;13.38;;;12.57;;
22046;SDS011;11187;49.412;20.956;2023-04-03T02:36:16;14.75;;;13.85;;
22046;SDS011;11187;49.412;20.956;2023-04-03T02:38:50;16.00;;;15.00;;
22046;SDS011;11187;49.412;20.956;2023-04-03T02:41:36;17.02;;;16.02;;
22046;SDS011;11187;49.412;20.956;2023-04-03T02:44:10;13.35;;;12.55;;
22046;SDS011;11187;49.412;20.956;2023-04-03T02:47:05;13.93;;;13.05;;
22046;SDS011;11187;49.412;20.956;2023-04-03T02:49:59;14.45;;;13.55;;
22046;SDS011;11187;49.412;20.956;2023-04-03T02:52:53;13.07;;;12.27;;
22046;SDS011;11187;49.412;20.956;2023-04-03T02:55:27;15.50;;;14.50;;
22046;SDS011;11187;49.412;20.956;2023-04-03T02:58:20;15.95;;;14.95;;
22046;SDS011;11187;49.412;20.956;2023-04-03T03:01:15;12.80;;;11.90;;
22046;SDS011;11187;49.412;20.956;2023-04-03T03:03:49;14.73;;;13.82;;
22046;SDS011;11187;49.412;20.956;2023-04-03T03:06:35;15.45;;;14.35;;
22046;SDS011;11187;49.412;20.956;2023-04-03T03:09:10;13.75;;;12.95;;
22046;SDS011;11187;49.412;20.956;2023-04-03T03:11:56;14.25;;;13.35;;
22046;SDS011;11187;49.412;20.956;2023-04-03T03:14:30;14.02;;;13.02;;
22046;SDS011;11187;49.412;20.956;2023-04-03T03:17:16;13.40;;;12.60;;
22046;SDS011;11187;49.412;20.956;2023-04-03T03:19:50;13.68;;;12.77;;
22046;SDS011;11187;49.412;20.956;2023-04-03T03:22:36;13.10;;;12.30;;
22046;SDS011;11187;49.412;20.956;2023-04-03T03:25:10;12.88;;;12.07;;
22046;SDS011;11187;49.412;20.956;2023-04-03T03:27:56;14.18;;;13.05;;
22046;SDS011;11187;49.412;20.956;2023-04-03T03:30:30;13.70;;;12.90;;
22046;SDS011;11187;49.412;20.956;2023-04-03T03:33:17;12.82;;;12.10;;
22046;SDS011;11187;49.412;20.956;2023-04-03T03:35:51;14.18;;;13.27;;
22046;SDS011;11187;49.412;20.956;2023-04-03T03:38:45;13.23;;;12.52;;
22046;SDS011;11187;49.412;20.956;2023-04-03T03:41:19;14.40;;;13.50;;
22046;SDS011;11187;49.412;20.956;2023-04-03T03:44:12;12.45;;;11.65;;
22046;SDS011;11187;49.412;20.956;2023-04-03T03:46:46;14.20;;;13.38;;
22046;SDS011;11187;49.412;20.956;2023-04-03T03:49:39;12.60;;;11.80;;
22046;SDS011;11187;49.412;20.956;2023-04-03T03:52:33;12.82;;;12.02;;
22046;SDS011;11187;49.412;20.956;2023-04-03T03:55:27;12.73;;;11.93;;
22046;SDS011;11187;49.412;20.956;2023-04-03T03:58:21;11.98;;;11.18;;
22046;SDS011;11187;49.412;20.956;2023-04-03T04:01:04;12.35;;;11.63;;
22046;SDS011;11187;49.412;20.956;2023-04-03T04:03:52;13.05;;;12.23;;
22046;SDS011;11187;49.412;20.956;2023-04-03T04:06:27;14.02;;;13.13;;
22046;SDS011;11187;49.412;20.956;2023-04-03T04:09:20;14.88;;;13.98;;
22046;SDS011;11187;49.412;20.956;2023-04-03T04:11:54;14.55;;;13.63;;
22046;SDS011;11187;49.412;20.956;2023-04-03T04:14:47;17.02;;;15.93;;
22046;SDS011;11187;49.412;20.956;2023-04-03T04:17:41;19.67;;;18.42;;
22046;SDS011;11187;49.412;20.956;2023-04-03T04:20:15;15.80;;;14.90;;
22046;SDS011;11187;49.412;20.956;2023-04-03T04:23:08;13.88;;;12.98;;
22046;SDS011;11187;49.412;20.956;2023-04-03T04:25:43;13.73;;;12.73;;
22046;SDS011;11187;49.412;20.956;2023-04-03T04:28:40;13.10;;;12.30;;
22046;SDS011;11187;49.412;20.956;2023-04-03T04:31:34;12.95;;;12.15;;
22046;SDS011;11187;49.412;20.956;2023-04-03T04:34:08;12.73;;;11.82;;
22046;SDS011;11187;49.412;20.956;2023-04-03T04:36:54;14.05;;;13.15;;
22046;SDS011;11187;49.412;20.956;2023-04-03T04:39:28;14.05;;;13.15;;
22046;SDS011;11187;49.412;20.956;2023-04-03T04:42:15;12.07;;;11.18;;
22046;SDS011;11187;49.412;20.956;2023-04-03T04:44:50;12.10;;;11.30;;
22046;SDS011;11187;49.412;20.956;2023-04-03T04:47:36;11.90;;;11.13;;
22046;SDS011;11187;49.412;20.956;2023-04-03T04:50:10;13.55;;;12.57;;
22046;SDS011;11187;49.412;20.956;2023-04-03T04:52:57;12.93;;;12.13;;
22046;SDS011;11187;49.412;20.956;2023-04-03T04:55:31;12.93;;;12.13;;
22046;SDS011;11187;49.412;20.956;2023-04-03T04:58:17;13.82;;;12.93;;
22046;SDS011;11187;49.412;20.956;2023-04-03T05:01:04;13.73;;;12.75;;
22046;SDS011;11187;49.412;20.956;2023-04-03T05:03:52;13.68;;;12.88;;
22046;SDS011;11187;49.412;20.956;2023-04-03T05:06:26;12.95;;;12.15;;
22046;SDS011;11187;49.412;20.956;2023-04-03T05:09:12;13.55;;;12.65;;
22046;SDS011;11187;49.412;20.956;2023-04-03T05:11:46;12.93;;;12.13;;
22046;SDS011;11187;49.412;20.956;2023-04-03T05:14:32;13.00;;;12.20;;
22046;SDS011;11187;49.412;20.956;2023-04-03T05:17:06;13.65;;;12.82;;
22046;SDS011;11187;49.412;20.956;2023-04-03T05:19:59;12.07;;;11.27;;
22046;SDS011;11187;49.412;20.956;2023-04-03T05:22:53;12.35;;;11.45;;
22046;SDS011;11187;49.412;20.956;2023-04-03T05:25:47;13.25;;;12.45;;
22046;SDS011;11187;49.412;20.956;2023-04-03T05:28:22;12.98;;;12.18;;
22046;SDS011;11187;49.412;20.956;2023-04-03T05:31:08;14.20;;;13.30;;
22046;SDS011;11187;49.412;20.956;2023-04-03T05:33:42;13.45;;;12.50;;
22046;SDS011;11187;49.412;20.956;2023-04-03T05:36:35;12.52;;;11.73;;
22046;SDS011;11187;49.412;20.956;2023-04-03T05:39:09;11.98;;;11.18;;
22046;SDS011;11187;49.412;20.956;2023-04-03T05:41:55;12.93;;;12.13;;
22046;SDS011;11187;49.412;20.956;2023-04-03T05:44:29;12.93;;;12.02;;
22046;SDS011;11187;49.412;20.956;2023-04-03T05:47:16;12.10;;;11.20;;
22046;SDS011;11187;49.412;20.956;2023-04-03T05:49:50;11.85;;;10.95;;
22046;SDS011;11187;49.412;20.956;2023-04-03T05:52:37;11.45;;;10.75;;
22046;SDS011;11187;49.412;20.956;2023-04-03T05:55:33;13.68;;;12.77;;
22046;SDS011;11187;49.412;20.956;2023-04-03T05:58:27;13.77;;;12.88;;
22046;SDS011;11187;49.412;20.956;2023-04-03T06:01:21;10.98;;;10.20;;
22046;SDS011;11187;49.412;20.956;2023-04-03T06:03:56;11.70;;;11.00;;
22046;SDS011;11187;49.412;20.956;2023-04-03T06:09:25;11.50;;;10.70;;
22046;SDS011;11187;49.412;20.956;2023-04-03T06:12:19;11.60;;;10.80;;
22046;SDS011;11187;49.412;20.956;2023-04-03T06:14:54;12.38;;;11.63;;
22046;SDS011;11187;49.412;20.956;2023-04-03T06:17:47;11.30;;;10.50;;
22046;SDS011;11187;49.412;20.956;2023-04-03T06:20:41;10.90;;;10.20;;
22046;SDS011;11187;49.412;20.956;2023-04-03T06:23:15;11.93;;;11.23;;
22046;SDS011;11187;49.412;20.956;2023-04-03T06:26:01;10.32;;;9.63;;
22046;SDS011;11187;49.412;20.956;2023-04-03T06:28:35;12.45;;;11.65;;
22046;SDS011;11187;49.412;20.956;2023-04-03T06:31:28;11.45;;;10.75;;
22046;SDS011;11187;49.412;20.956;2023-04-03T06:34:22;11.70;;;10.95;;
22046;SDS011;11187;49.412;20.956;2023-04-03T06:36:56;10.80;;;10.00;;
22046;SDS011;11187;49.412;20.956;2023-04-03T06:39:42;13.02;;;12.02;;
22046;SDS011;11187;49.412;20.956;2023-04-03T06:42:16;10.80;;;10.10;;
22046;SDS011;11187;49.412;20.956;2023-04-03T06:45:02;12.68;;;11.77;;
22046;SDS011;11187;49.412;20.956;2023-04-03T06:47:36;10.82;;;10.02;;
22046;SDS011;11187;49.412;20.956;2023-04-03T06:50:29;13.18;;;12.27;;
22046;SDS011;11187;49.412;20.956;2023-04-03T06:53:03;13.57;;;12.57;;
22046;SDS011;11187;49.412;20.956;2023-04-03T06:55:49;12.35;;;11.55;;
22046;SDS011;11187;49.412;20.956;2023-04-03T06:58:23;15.82;;;14.20;;
22046;SDS011;11187;49.412;20.956;2023-04-03T07:01:10;14.77;;;13.52;;
22046;SDS011;11187;49.412;20.956;2023-04-03T07:03:45;13.80;;;12.73;;
22046;SDS011;11187;49.412;20.956;2023-04-03T07:06:32;14.48;;;13.38;;
22046;SDS011;11187;49.412;20.956;2023-04-03T07:09:07;13.02;;;11.82;;
22046;SDS011;11187;49.412;20.956;2023-04-03T07:12:00;13.82;;;12.93;;
22046;SDS011;11187;49.412;20.956;2023-04-03T07:14:54;12.98;;;12.07;;
22046;SDS011;11187;49.412;20.956;2023-04-03T07:17:28;11.55;;;10.73;;
22046;SDS011;11187;49.412;20.956;2023-04-03T07:20:15;12.88;;;12.02;;
22046;SDS011;11187;49.412;20.956;2023-04-03T07:22:49;11.90;;;11.07;;
22046;SDS011;11187;49.412;20.956;2023-04-03T07:25:35;14.57;;;13.57;;
22046;SDS011;11187;49.412;20.956;2023-04-03T07:28:09;13.65;;;12.55;;
22046;SDS011;11187;49.412;20.956;2023-04-03T07:31:07;13.13;;;12.23;;
22046;SDS011;11187;49.412;20.956;2023-04-03T07:33:45;12.23;;;11.43;;
22046;SDS011;11187;49.412;20.956;2023-04-03T07:36:38;11.90;;;11.10;;
22046;SDS011;11187;49.412;20.956;2023-04-03T07:39:32;10.80;;;9.82;;
22046;SDS011;11187;49.412;20.956;2023-04-03T07:42:06;12.68;;;11.68;;
22046;SDS011;11187;49.412;20.956;2023-04-03T07:44:52;10.63;;;9.82;;
22046;SDS011;11187;49.412;20.956;2023-04-03T07:47:27;12.25;;;11.38;;
22046;SDS011;11187;49.412;20.956;2023-04-03T07:50:13;13.10;;;10.55;;
22046;SDS011;11187;49.412;20.956;2023-04-03T07:52:47;17.95;;;16.40;;
22046;SDS011;11187;49.412;20.956;2023-04-03T07:55:36;11.38;;;10.52;;
22046;SDS011;11187;49.412;20.956;2023-04-03T07:58:16;13.07;;;12.25;;
22046;SDS011;11187;49.412;20.956;2023-04-03T08:01:05;10.93;;;10.07;;
22046;SDS011;11187;49.412;20.956;2023-04-03T08:03:39;11.32;;;10.52;;
22046;SDS011;11187;49.412;20.956;2023-04-03T08:06:25;10.88;;;10.07;;
22046;SDS011;11187;49.412;20.956;2023-04-03T08:09:13;11.02;;;10.23;;
22046;SDS011;11187;49.412;20.956;2023-04-03T08:12:07;10.45;;;9.75;;
22046;SDS011;11187;49.412;20.956;2023-04-03T08:15:02;10.60;;;9.90;;
22046;SDS011;11187;49.412;20.956;2023-04-03T08:17:36;9.57;;;8.93;;
22046;SDS011;11187;49.412;20.956;2023-04-03T08:20:29;9.85;;;9.15;;
22046;SDS011;11187;49.412;20.956;2023-04-03T08:23:03;10.38;;;9.68;;
22046;SDS011;11187;49.412;20.956;2023-04-03T08:25:49;11.73;;;10.82;;
22046;SDS011;11187;49.412;20.956;2023-04-03T08:28:24;11.07;;;10.27;;
22046;SDS011;11187;49.412;20.956;2023-04-03T08:31:12;12.82;;;12.02;;
22046;SDS011;11187;49.412;20.956;2023-04-03T08:33:47;13.63;;;12.55;;
22046;SDS011;11187;49.412;20.956;2023-04-03T08:36:33;12.40;;;11.50;;
22046;SDS011;11187;49.412;20.956;2023-04-03T08:39:07;11.38;;;10.57;;
22046;SDS011;11187;49.412;20.956;2023-04-03T08:41:55;12.38;;;11.48;;
22046;SDS011;11187;49.412;20.956;2023-04-03T08:47:38;11.35;;;10.27;;
22046;SDS011;11187;49.412;20.956;2023-04-03T08:50:18;11.20;;;10.38;;
22046;SDS011;11187;49.412;20.956;2023-04-03T08:53:15;10.77;;;9.98;;
22046;SDS011;11187;49.412;20.956;2023-04-03T08:55:51;11.65;;;10.57;;
22046;SDS011;11187;49.412;20.956;2023-04-03T08:58:59;13.35;;;12.27;;
22046;SDS011;11187;49.412;20.956;2023-04-03T09:01:40;12.25;;;11.15;;
22046;SDS011;11187;49.412;20.956;2023-04-03T09:04:28;11.43;;;10.52;;
22046;SDS011;11187;49.412;20.956;2023-04-03T09:07:07;11.63;;;10.63;;
22046;SDS011;11187;49.412;20.956;2023-04-03T09:10:10;13.73;;;12.82;;
22046;SDS011;11187;49.412;20.956;2023-04-03T09:15:57;11.50;;;10.80;;
22046;SDS011;11187;49.412;20.956;2023-04-03T09:18:45;11.48;;;10.68;;
22046;SDS011;11187;49.412;20.956;2023-04-03T09:21:29;10.68;;;9.98;;
22046;SDS011;11187;49.412;20.956;2023-04-03T09:24:21;11.60;;;10.70;;
22046;SDS011;11187;49.412;20.956;2023-04-03T09:29:45;13.07;;;12.07;;
22046;SDS011;11187;49.412;20.956;2023-04-03T09:32:26;11.50;;;10.65;;
22046;SDS011;11187;49.412;20.956;2023-04-03T09:35:26;11.13;;;10.13;;
22046;SDS011;11187;49.412;20.956;2023-04-03T09:41:13;10.10;;;9.30;;
22046;SDS011;11187;49.412;20.956;2023-04-03T09:43:53;13.10;;;12.05;;
22046;SDS011;11187;49.412;20.956;2023-04-03T09:46:40;12.18;;;11.27;;
22046;SDS011;11187;49.412;20.956;2023-04-03T09:49:14;12.63;;;11.73;;
22046;SDS011;11187;49.412;20.956;2023-04-03T09:52:13;13.63;;;12.30;;
22046;SDS011;11187;49.412;20.956;2023-04-03T09:55:25;12.10;;;11.15;;
22046;SDS011;11187;49.412;20.956;2023-04-03T09:58:02;11.68;;;10.77;;
22046;SDS011;11187;49.412;20.956;2023-04-03T10:07:01;12.25;;;11.45;;
22046;SDS011;11187;49.412;20.956;2023-04-03T10:09:35;10.07;;;9.30;;
22046;SDS011;11187;49.412;20.956;2023-04-03T10:12:22;9.02;;;8.43;;
22046;SDS011;11187;49.412;20.956;2023-04-03T10:14:57;9.77;;;8.98;;
22046;SDS011;11187;49.412;20.956;2023-04-03T10:17:54;10.40;;;9.70;;
22046;SDS011;11187;49.412;20.956;2023-04-03T10:21:10;12.20;;;11.40;;
22046;SDS011;11187;49.412;20.956;2023-04-03T10:30:41;12.23;;;11.27;;
22046;SDS011;11187;49.412;20.956;2023-04-03T10:36:38;11.40;;;10.50;;
22046;SDS011;11187;49.412;20.956;2023-04-03T10:39:29;12.52;;;11.63;;
22046;SDS011;11187;49.412;20.956;2023-04-03T10:45:17;11.80;;;10.90;;
22046;SDS011;11187;49.412;20.956;2023-04-03T10:54:26;11.35;;;10.48;;
22046;SDS011;11187;49.412;20.956;2023-04-03T10:57:29;12.48;;;11.48;;
22046;SDS011;11187;49.412;20.956;2023-04-03T11:00:26;12.15;;;11.25;;
22046;SDS011;11187;49.412;20.956;2023-04-03T11:03:24;10.88;;;10.07;;
22046;SDS011;11187;49.412;20.956;2023-04-03T11:06:24;11.50;;;10.60;;
22046;SDS011;11187;49.412;20.956;2023-04-03T11:09:32;12.20;;;11.32;;
22046;SDS011;11187;49.412;20.956;2023-04-03T11:15:23;13.05;;;11.95;;
22046;SDS011;11187;49.412;20.956;2023-04-03T11:18:00;13.18;;;10.63;;
22046;SDS011;11187;49.412;20.956;2023-04-03T11:21:12;11.25;;;10.45;;
22046;SDS011;11187;49.412;20.956;2023-04-03T11:23:49;13.30;;;12.20;;
22046;SDS011;11187;49.412;20.956;2023-04-03T11:26:40;15.70;;;14.60;;
22046;SDS011;11187;49.412;20.956;2023-04-03T11:29:17;18.83;;;17.42;;
22046;SDS011;11187;49.412;20.956;2023-04-03T11:32:27;16.35;;;15.20;;
22046;SDS011;11187;49.412;20.956;2023-04-03T11:35:08;15.45;;;14.45;;
22046;SDS011;11187;49.412;20.956;2023-04-03T11:37:55;15.23;;;14.18;;
22046;SDS011;11187;49.412;20.956;2023-04-03T11:40:34;14.35;;;13.43;;
22046;SDS011;11187;49.412;20.956;2023-04-03T11:43:24;15.05;;;13.98;;
22046;SDS011;11187;49.412;20.956;2023-04-03T11:48:51;13.00;;;12.10;;
22046;SDS011;11187;49.412;20.956;2023-04-03T11:55:01;17.42;;;16.23;;
22046;SDS011;11187;49.412;20.956;2023-04-03T12:12:27;14.50;;;13.30;;
22046;SDS011;11187;49.412;20.956;2023-04-03T12:18:31;18.15;;;16.85;;
22046;SDS011;11187;49.412;20.956;2023-04-03T12:30:35;14.50;;;13.30;;
22046;SDS011;11187;49.412;20.956;2023-04-03T12:36:21;13.52;;;12.05;;
22046;SDS011;11187;49.412;20.956;2023-04-03T12:39:05;13.38;;;12.27;;
22046;SDS011;11187;49.412;20.956;2023-04-03T12:49:01;14.13;;;12.88;;
22046;SDS011;11187;49.412;20.956;2023-04-03T12:52:17;14.93;;;13.38;;
22046;SDS011;11187;49.412;20.956;2023-04-03T12:55:19;16.30;;;14.80;;
22046;SDS011;11187;49.412;20.956;2023-04-03T12:58:14;14.75;;;13.23;;
22046;SDS011;11187;49.412;20.956;2023-04-03T13:00:59;13.20;;;12.07;;
22046;SDS011;11187;49.412;20.956;2023-04-03T13:03:56;14.68;;;13.23;;
22046;SDS011;11187;49.412;20.956;2023-04-03T13:06:41;14.05;;;12.73;;
22046;SDS011;11187;49.412;20.956;2023-04-03T13:09:36;15.13;;;13.32;;
22046;SDS011;11187;49.412;20.956;2023-04-03T13:12:30;14.82;;;13.20;;
22046;SDS011;11187;49.412;20.956;2023-04-03T13:15:26;14.68;;;13.32;;
22046;SDS011;11187;49.412;20.956;2023-04-03T13:18:02;13.52;;;12.23;;
22046;SDS011;11187;49.412;20.956;2023-04-03T13:21:18;12.02;;;10.93;;
22046;SDS011;11187;49.412;20.956;2023-04-03T13:24:12;15.45;;;13.93;;
22046;SDS011;11187;49.412;20.956;2023-04-03T13:26:46;15.32;;;13.82;;
22046;SDS011;11187;49.412;20.956;2023-04-03T13:29:34;14.15;;;13.15;;
22046;SDS011;11187;49.412;20.956;2023-04-03T13:32:17;14.57;;;13.23;;
22046;SDS011;11187;49.412;20.956;2023-04-03T13:38:27;15.38;;;14.02;;
22046;SDS011;11187;49.412;20.956;2023-04-03T13:41:33;15.15;;;13.48;;
22046;SDS011;11187;49.412;20.956;2023-04-03T13:44:40;13.95;;;12.85;;
22046;SDS011;11187;49.412;20.956;2023-04-03T13:47:21;13.68;;;12.43;;
22046;SDS011;11187;49.412;20.956;2023-04-03T13:53:14;14.77;;;13.15;;
22046;SDS011;11187;49.412;20.956;2023-04-03T13:59:02;14.65;;;13.25;;
22046;SDS011;11187;49.412;20.956;2023-04-03T14:01:49;13.98;;;12.57;;
22046;SDS011;11187;49.412;20.956;2023-04-03T14:04:52;14.55;;;13.02;;
22046;SDS011;11187;49.412;20.956;2023-04-03T14:07:48;12.70;;;11.45;;
22046;SDS011;11187;49.412;20.956;2023-04-03T14:10:42;15.25;;;13.88;;
22046;SDS011;11187;49.412;20.956;2023-04-03T14:13:35;15.57;;;14.10;;
22046;SDS011;11187;49.412;20.956;2023-04-03T14:16:30;14.05;;;12.80;;
22046;SDS011;11187;49.412;20.956;2023-04-03T14:19:26;12.40;;;11.30;;
22046;SDS011;11187;49.412;20.956;2023-04-03T14:22:18;15.20;;;12.05;;
22046;SDS011;11187;49.412;20.956;2023-04-03T14:25:17;15.18;;;13.65;;
22046;SDS011;11187;49.412;20.956;2023-04-03T14:28:17;13.57;;;12.18;;
22046;SDS011;11187;49.412;20.956;2023-04-03T14:30:53;13.93;;;12.68;;
22046;SDS011;11187;49.412;20.956;2023-04-03T14:33:39;14.73;;;12.88;;
22046;SDS011;11187;49.412;20.956;2023-04-03T14:39:01;14.02;;;12.68;;
22046;SDS011;11187;49.412;20.956;2023-04-03T14:41:36;12.85;;;11.80;;
22046;SDS011;11187;49.412;20.956;2023-04-03T14:44:23;12.65;;;11.38;;
22046;SDS011;11187;49.412;20.956;2023-04-03T14:46:57;14.68;;;13.38;;
22046;SDS011;11187;49.412;20.956;2023-04-03T14:49:44;13.52;;;12.23;;
22046;SDS011;11187;49.412;20.956;2023-04-03T14:52:19;13.00;;;11.80;;
22046;SDS011;11187;49.412;20.956;2023-04-03T14:55:16;14.20;;;12.80;;
22046;SDS011;11187;49.412;20.956;2023-04-03T14:58:13;14.05;;;11.77;;
22046;SDS011;11187;49.412;20.956;2023-04-03T15:01:09;13.10;;;12.10;;
22046;SDS011;11187;49.412;20.956;2023-04-03T15:03:43;12.65;;;11.45;;
22046;SDS011;11187;49.412;20.956;2023-04-03T15:06:30;15.18;;;12.85;;
22046;SDS011;11187;49.412;20.956;2023-04-03T15:09:03;13.98;;;12.57;;
22046;SDS011;11187;49.412;20.956;2023-04-03T15:11:51;13.57;;;12.30;;
22046;SDS011;11187;49.412;20.956;2023-04-03T15:14:26;12.70;;;11.57;;
22046;SDS011;11187;49.412;20.956;2023-04-03T15:17:36;14.18;;;12.77;;
22046;SDS011;11187;49.412;20.956;2023-04-03T15:20:13;15.32;;;12.00;;
22046;SDS011;11187;49.412;20.956;2023-04-03T15:23:02;13.75;;;12.32;;
22046;SDS011;11187;49.412;20.956;2023-04-03T15:25:35;14.85;;;13.45;;
22046;SDS011;11187;49.412;20.956;2023-04-03T15:28:32;12.70;;;11.45;;
22046;SDS011;11187;49.412;20.956;2023-04-03T15:31:08;13.27;;;11.88;;
22046;SDS011;11187;49.412;20.956;2023-04-03T15:34:02;13.45;;;12.10;;
22046;SDS011;11187;49.412;20.956;2023-04-03T15:36:36;14.88;;;13.48;;
22046;SDS011;11187;49.412;20.956;2023-04-03T15:39:29;13.32;;;12.10;;
22046;SDS011;11187;49.412;20.956;2023-04-03T15:42:03;13.23;;;11.88;;
22046;SDS011;11187;49.412;20.956;2023-04-03T15:44:51;14.50;;;13.15;;
22046;SDS011;11187;49.412;20.956;2023-04-03T15:47:25;14.63;;;13.20;;
22046;SDS011;11187;49.412;20.956;2023-04-03T15:50:19;14.20;;;12.85;;
22046;SDS011;11187;49.412;20.956;2023-04-03T15:53:14;12.80;;;11.60;;
22046;SDS011;11187;49.412;20.956;2023-04-03T15:56:07;13.02;;;11.93;;
22046;SDS011;11187;49.412;20.956;2023-04-03T15:59:01;13.65;;;12.40;;
22046;SDS011;11187;49.412;20.956;2023-04-03T16:01:38;13.85;;;12.60;;
22046;SDS011;11187;49.412;20.956;2023-04-03T16:04:32;13.65;;;12.40;;
22046;SDS011;11187;49.412;20.956;2023-04-03T16:07:06;13.45;;;12.18;;
22046;SDS011;11187;49.412;20.956;2023-04-03T16:09:59;12.63;;;11.40;;
22046;SDS011;11187;49.412;20.956;2023-04-03T16:12:33;13.30;;;11.90;;
22046;SDS011;11187;49.412;20.956;2023-04-03T16:15:27;15.18;;;12.88;;
22046;SDS011;11187;49.412;20.956;2023-04-03T16:18:20;14.40;;;12.95;;
22046;SDS011;11187;49.412;20.956;2023-04-03T16:20:54;12.68;;;11.52;;
22046;SDS011;11187;49.412;20.956;2023-04-03T16:23:41;14.63;;;12.02;;
22046;SDS011;11187;49.412;20.956;2023-04-03T16:26:14;14.00;;;12.75;;
22046;SDS011;11187;49.412;20.956;2023-04-03T16:29:02;14.48;;;13.00;;
22046;SDS011;11187;49.412;20.956;2023-04-03T16:31:35;16.80;;;11.98;;
22046;SDS011;11187;49.412;20.956;2023-04-03T16:34:29;14.48;;;13.10;;
22046;SDS011;11187;49.412;20.956;2023-04-03T16:37:05;14.10;;;12.90;;
22046;SDS011;11187;49.412;20.956;2023-04-03T16:39:53;14.52;;;13.13;;
22046;SDS011;11187;49.412;20.956;2023-04-03T16:42:26;13.70;;;12.60;;
22046;SDS011;11187;49.412;20.956;2023-04-03T16:45:20;13.07;;;12.15;;
22046;SDS011;11187;49.412;20.956;2023-04-03T16:48:14;13.70;;;12.30;;
22046;SDS011;11187;49.412;20.956;2023-04-03T16:50:47;14.50;;;13.18;;
22046;SDS011;11187;49.412;20.956;2023-04-03T16:53:42;18.73;;;13.52;;
22046;SDS011;11187;49.412;20.956;2023-04-03T16:56:15;13.55;;;12.10;;
22046;SDS011;11187;49.412;20.956;2023-04-03T16:59:09;14.45;;;13.05;;
22046;SDS011;11187;49.412;20.956;2023-04-03T17:01:42;14.48;;;13.02;;
22046;SDS011;11187;49.412;20.956;2023-04-03T17:04:29;14.82;;;13.45;;
22046;SDS011;11187;49.412;20.956;2023-04-03T17:07:02;15.65;;;13.43;;
22046;SDS011;11187;49.412;20.956;2023-04-03T17:09:56;14.18;;;12.88;;
22046;SDS011;11187;49.412;20.956;2023-04-03T17:12:50;14.20;;;13.00;;
22046;SDS011;11187;49.412;20.956;2023-04-03T17:15:23;14.38;;;13.18;;
22046;SDS011;11187;49.412;20.956;2023-04-03T17:18:11;14.32;;;13.13;;
22046;SDS011;11187;49.412;20.956;2023-04-03T17:20:44;16.52;;;14.93;;
22046;SDS011;11187;49.412;20.956;2023-04-03T17:23:38;17.60;;;15.88;;
22046;SDS011;11187;49.412;20.956;2023-04-03T17:26:13;16.23;;;14.82;;
22046;SDS011;11187;49.412;20.956;2023-04-03T17:29:01;17.25;;;15.77;;
22046;SDS011;11187;49.412;20.956;2023-04-03T17:31:34;15.02;;;13.60;;
22046;SDS011;11187;49.412;20.956;2023-04-03T17:34:29;22.27;;;14.38;;
22046;SDS011;11187;49.412;20.956;2023-04-03T17:37:02;14.18;;;13.07;;
22046;SDS011;11187;49.412;20.956;2023-04-03T17:39:56;15.77;;;14.27;;
22046;SDS011;11187;49.412;20.956;2023-04-03T17:42:50;15.98;;;14.68;;